sensor_id;sensor_type;location;lat;lon;timestamp;pressure;altitude;pressure_sealevel;temperature
27986;BMP280;15453;53.692;10.168;2023-01-25T00:01:12;103484.75;;;5.95
27986;BMP280;15453;53.692;10.168;2023-01-25T00:03:37;103484.75;;;5.95
27986;BMP280;15453;53.692;10.168;2023-01-25T00:06:02;103477.75;;;5.92
27986;BMP280;15453;53.692;10.168;2023-01-25T00:08:27;103474.00;;;5.93
27986;BMP280;15453;53.692;10.168;2023-01-25T00:10:53;103475.72;;;5.94
27986;BMP280;15453;53.692;10.168;2023-01-25T00:13:18;103466.72;;;5.94
27986;BMP280;15453;53.692;10.168;2023-01-25T00:15:43;103472.84;;;5.96
27986;BMP280;15453;53.692;10.168;2023-01-25T00:18:08;103464.00;;;5.94
27986;BMP280;15453;53.692;10.168;2023-01-25T00:20:34;103463.28;;;5.92
27986;BMP280;15453;53.692;10.168;2023-01-25T00:22:59;103462.41;;;5.91
27986;BMP280;15453;53.692;10.168;2023-01-25T00:25:24;103459.88;;;5.90
27986;BMP280;15453;53.692;10.168;2023-01-25T00:27:49;103458.47;;;5.86
27986;BMP280;15453;53.692;10.168;2023-01-25T00:30:15;103460.31;;;5.85
27986;BMP280;15453;53.692;10.168;2023-01-25T00:32:48;103458.63;;;5.84
27986;BMP280;15453;53.692;10.168;2023-01-25T00:35:16;103462.50;;;5.82
27986;BMP280;15453;53.692;10.168;2023-01-25T00:37:43;103466.06;;;5.82
27986;BMP280;15453;53.692;10.168;2023-01-25T00:40:11;103462.66;;;5.80
27986;BMP280;15453;53.692;10.168;2023-01-25T00:42:37;103466.34;;;5.79
27986;BMP280;15453;53.692;10.168;2023-01-25T00:45:02;103456.31;;;5.80
27986;BMP280;15453;53.692;10.168;2023-01-25T00:47:28;103447.31;;;5.79
27986;BMP280;15453;53.692;10.168;2023-01-25T00:49:53;103446.44;;;5.79
27986;BMP280;15453;53.692;10.168;2023-01-25T00:52:18;103437.25;;;5.80
27986;BMP280;15453;53.692;10.168;2023-01-25T00:54:44;103440.59;;;5.83
27986;BMP280;15453;53.692;10.168;2023-01-25T00:57:09;103427.97;;;5.82
27986;BMP280;15453;53.692;10.168;2023-01-25T00:59:35;103427.97;;;5.82
27986;BMP280;15453;53.692;10.168;2023-01-25T01:02:01;103423.66;;;5.80
27986;BMP280;15453;53.692;10.168;2023-01-25T01:04:26;103427.28;;;5.80
27986;BMP280;15453;53.692;10.168;2023-01-25T01:06:53;103422.84;;;5.79
27986;BMP280;15453;53.692;10.168;2023-01-25T01:09:20;103428.28;;;5.79
27986;BMP280;15453;53.692;10.168;2023-01-25T01:11:45;103433.56;;;5.81
27986;BMP280;15453;53.692;10.168;2023-01-25T01:14:11;103430.00;;;5.80
27986;BMP280;15453;53.692;10.168;2023-01-25T01:16:36;103430.00;;;5.80
27986;BMP280;15453;53.692;10.168;2023-01-25T01:19:02;103424.16;;;5.75
27986;BMP280;15453;53.692;10.168;2023-01-25T01:21:27;103424.84;;;5.77
27986;BMP280;15453;53.692;10.168;2023-01-25T01:23:53;103424.84;;;5.77
27986;BMP280;15453;53.692;10.168;2023-01-25T01:26:19;103417.84;;;5.75
27986;BMP280;15453;53.692;10.168;2023-01-25T01:28:44;103420.41;;;5.76
27986;BMP280;15453;53.692;10.168;2023-01-25T01:31:18;103413.41;;;5.74
27986;BMP280;15453;53.692;10.168;2023-01-25T01:33:48;103423.13;;;5.76
27986;BMP280;15453;53.692;10.168;2023-01-25T01:36:15;103423.13;;;5.76
27986;BMP280;15453;53.692;10.168;2023-01-25T01:38:41;103410.69;;;5.74
27986;BMP280;15453;53.692;10.168;2023-01-25T01:41:07;103414.44;;;5.73
27986;BMP280;15453;53.692;10.168;2023-01-25T01:43:32;103409.97;;;5.72
27986;BMP280;15453;53.692;10.168;2023-01-25T01:46:15;103406.41;;;5.71
27986;BMP280;15453;53.692;10.168;2023-01-25T01:49:05;103404.69;;;5.70
27986;BMP280;15453;53.692;10.168;2023-01-25T01:51:45;103404.69;;;5.70
27986;BMP280;15453;53.692;10.168;2023-01-25T01:57:05;103417.75;;;5.67
27986;BMP280;15453;53.692;10.168;2023-01-25T01:59:38;103397.16;;;5.64
27986;BMP280;15453;53.692;10.168;2023-01-25T02:02:03;103408.91;;;5.65
27986;BMP280;15453;53.692;10.168;2023-01-25T02:04:29;103408.91;;;5.65
27986;BMP280;15453;53.692;10.168;2023-01-25T02:06:59;103414.63;;;5.62
27986;BMP280;15453;53.692;10.168;2023-01-25T02:09:28;103398.63;;;5.59
27986;BMP280;15453;53.692;10.168;2023-01-25T02:11:55;103389.63;;;5.58
27986;BMP280;15453;53.692;10.168;2023-01-25T02:14:22;103393.31;;;5.57
27986;BMP280;15453;53.692;10.168;2023-01-25T02:16:47;103393.31;;;5.57
27986;BMP280;15453;53.692;10.168;2023-01-25T02:19:23;103390.06;;;5.54
27986;BMP280;15453;53.692;10.168;2023-01-25T02:21:51;103395.66;;;5.52
27986;BMP280;15453;53.692;10.168;2023-01-25T02:24:27;103392.94;;;5.52
27986;BMP280;15453;53.692;10.168;2023-01-25T02:26:55;103389.53;;;5.50
27986;BMP280;15453;53.692;10.168;2023-01-25T02:29:21;103395.94;;;5.49
27986;BMP280;15453;53.692;10.168;2023-01-25T02:31:48;103387.97;;;5.48
27986;BMP280;15453;53.692;10.168;2023-01-25T02:34:16;103384.25;;;5.49
27986;BMP280;15453;53.692;10.168;2023-01-25T02:36:42;103384.25;;;5.49
27986;BMP280;15453;53.692;10.168;2023-01-25T02:39:10;103379.97;;;5.46
27986;BMP280;15453;53.692;10.168;2023-01-25T02:41:39;103376.38;;;5.46
27986;BMP280;15453;53.692;10.168;2023-01-25T02:44:20;103371.97;;;5.45
27986;BMP280;15453;53.692;10.168;2023-01-25T02:46:47;103370.94;;;5.46
27986;BMP280;15453;53.692;10.168;2023-01-25T02:49:13;103370.94;;;5.46
27986;BMP280;15453;53.692;10.168;2023-01-25T02:51:41;103364.09;;;5.42
27986;BMP280;15453;53.692;10.168;2023-01-25T02:54:08;103355.06;;;5.41
27986;BMP280;15453;53.692;10.168;2023-01-25T02:56:35;103362.53;;;5.39
27986;BMP280;15453;53.692;10.168;2023-01-25T02:59:00;103361.84;;;5.37
27986;BMP280;15453;53.692;10.168;2023-01-25T03:01:33;103353.84;;;5.36
27986;BMP280;15453;53.692;10.168;2023-01-25T03:03:59;103360.25;;;5.35
27986;BMP280;15453;53.692;10.168;2023-01-25T03:06:24;103365.88;;;5.33
27986;BMP280;15453;53.692;10.168;2023-01-25T03:08:49;103368.59;;;5.33
27986;BMP280;15453;53.692;10.168;2023-01-25T03:11:15;103350.41;;;5.34
27986;BMP280;15453;53.692;10.168;2023-01-25T03:13:40;103344.97;;;5.34
27986;BMP280;15453;53.692;10.168;2023-01-25T03:16:08;103350.25;;;5.35
27986;BMP280;15453;53.692;10.168;2023-01-25T03:18:34;103350.25;;;5.35
27986;BMP280;15453;53.692;10.168;2023-01-25T03:21:11;103349.25;;;5.36
27986;BMP280;15453;53.692;10.168;2023-01-25T03:23:37;103342.97;;;5.36
27986;BMP280;15453;53.692;10.168;2023-01-25T03:26:10;103333.94;;;5.35
27986;BMP280;15453;53.692;10.168;2023-01-25T03:28:37;103335.81;;;5.35
27986;BMP280;15453;53.692;10.168;2023-01-25T03:31:03;103324.09;;;5.34
27986;BMP280;15453;53.692;10.168;2023-01-25T03:33:28;103324.09;;;5.34
27986;BMP280;15453;53.692;10.168;2023-01-25T03:35:54;103327.13;;;5.31
27986;BMP280;15453;53.692;10.168;2023-01-25T03:38:20;103323.53;;;5.31
27986;BMP280;15453;53.692;10.168;2023-01-25T03:40:46;103319.09;;;5.30
27986;BMP280;15453;53.692;10.168;2023-01-25T03:43:11;103321.00;;;5.29
27986;BMP280;15453;53.692;10.168;2023-01-25T03:45:37;103310.25;;;5.28
27986;BMP280;15453;53.692;10.168;2023-01-25T03:48:02;103304.09;;;5.26
27986;BMP280;15453;53.692;10.168;2023-01-25T03:50:27;103308.72;;;5.25
27986;BMP280;15453;53.692;10.168;2023-01-25T03:52:53;103313.44;;;5.23
27986;BMP280;15453;53.692;10.168;2023-01-25T03:55:25;103303.56;;;5.22
27986;BMP280;15453;53.692;10.168;2023-01-25T03:57:51;103305.44;;;5.22
27986;BMP280;15453;53.692;10.168;2023-01-25T04:00:16;103304.44;;;5.23
27986;BMP280;15453;53.692;10.168;2023-01-25T04:02:42;103301.72;;;5.23
27986;BMP280;15453;53.692;10.168;2023-01-25T04:05:07;103304.25;;;5.24
27986;BMP280;15453;53.692;10.168;2023-01-25T04:07:32;103297.84;;;5.25
27986;BMP280;15453;53.692;10.168;2023-01-25T04:09:58;103295.97;;;5.26
27986;BMP280;15453;53.692;10.168;2023-01-25T04:12:23;103294.94;;;5.27
27986;BMP280;15453;53.692;10.168;2023-01-25T04:14:48;103297.66;;;5.27
27986;BMP280;15453;53.692;10.168;2023-01-25T04:17:14;103288.53;;;5.28
27986;BMP280;15453;53.692;10.168;2023-01-25T04:19:39;103290.69;;;5.24
27986;BMP280;15453;53.692;10.168;2023-01-25T04:22:04;103287.13;;;5.24
27986;BMP280;15453;53.692;10.168;2023-01-25T04:24:29;103290.84;;;5.23
27986;BMP280;15453;53.692;10.168;2023-01-25T04:26:55;103290.84;;;5.23
27986;BMP280;15453;53.692;10.168;2023-01-25T04:29:20;103281.44;;;5.17
27986;BMP280;15453;53.692;10.168;2023-01-25T04:31:45;103297.03;;;5.15
27986;BMP280;15453;53.692;10.168;2023-01-25T04:34:10;103280.19;;;5.12
27986;BMP280;15453;53.692;10.168;2023-01-25T04:36:35;103279.66;;;5.08
27986;BMP280;15453;53.692;10.168;2023-01-25T04:39:01;103280.78;;;5.06
27986;BMP280;15453;53.692;10.168;2023-01-25T04:41:26;103283.66;;;5.04
27986;BMP280;15453;53.692;10.168;2023-01-25T04:43:53;103283.66;;;5.04
27986;BMP280;15453;53.692;10.168;2023-01-25T04:46:19;103270.38;;;5.01
27986;BMP280;15453;53.692;10.168;2023-01-25T04:48:44;103271.06;;;5.03
27986;BMP280;15453;53.692;10.168;2023-01-25T04:51:09;103271.06;;;5.03
27986;BMP280;15453;53.692;10.168;2023-01-25T04:53:34;103264.22;;;4.99
27986;BMP280;15453;53.692;10.168;2023-01-25T04:55:59;103258.66;;;5.01
27986;BMP280;15453;53.692;10.168;2023-01-25T04:58:25;103252.19;;;5.02
27986;BMP280;15453;53.692;10.168;2023-01-25T05:00:50;103258.22;;;5.05
27986;BMP280;15453;53.692;10.168;2023-01-25T05:03:15;103258.22;;;5.05
27986;BMP280;15453;53.692;10.168;2023-01-25T05:05:45;103251.91;;;5.05
27986;BMP280;15453;53.692;10.168;2023-01-25T05:08:10;103256.50;;;5.04
27986;BMP280;15453;53.692;10.168;2023-01-25T05:10:36;103252.94;;;5.04
27986;BMP280;15453;53.692;10.168;2023-01-25T05:13:01;103252.94;;;5.04
27986;BMP280;15453;53.692;10.168;2023-01-25T05:15:26;103247.94;;;4.99
27986;BMP280;15453;53.692;10.168;2023-01-25T05:17:51;103247.94;;;4.99
27986;BMP280;15453;53.692;10.168;2023-01-25T05:20:17;103239.53;;;4.93
27986;BMP280;15453;53.692;10.168;2023-01-25T05:22:42;103240.56;;;4.92
27986;BMP280;15453;53.692;10.168;2023-01-25T05:25:07;103240.56;;;4.92
27986;BMP280;15453;53.692;10.168;2023-01-25T05:27:52;103234.72;;;4.87
27986;BMP280;15453;53.692;10.168;2023-01-25T05:30:18;103239.63;;;4.83
27986;BMP280;15453;53.692;10.168;2023-01-25T05:32:43;103244.19;;;4.83
27986;BMP280;15453;53.692;10.168;2023-01-25T05:35:08;103244.19;;;4.83
27986;BMP280;15453;53.692;10.168;2023-01-25T05:37:33;103238.22;;;4.79
27986;BMP280;15453;53.692;10.168;2023-01-25T05:39:59;103229.34;;;4.77
27986;BMP280;15453;53.692;10.168;2023-01-25T05:42:25;103229.34;;;4.77
27986;BMP280;15453;53.692;10.168;2023-01-25T05:44:50;103226.50;;;4.79
27986;BMP280;15453;53.692;10.168;2023-01-25T05:47:16;103222.06;;;4.78
27986;BMP280;15453;53.692;10.168;2023-01-25T05:49:42;103212.91;;;4.79
27986;BMP280;15453;53.692;10.168;2023-01-25T05:52:12;103214.63;;;4.80
27986;BMP280;15453;53.692;10.168;2023-01-25T05:54:37;103216.50;;;4.79
27986;BMP280;15453;53.692;10.168;2023-01-25T05:57:03;103213.94;;;4.78
27986;BMP280;15453;53.692;10.168;2023-01-25T05:59:28;103217.81;;;4.75
27986;BMP280;15453;53.692;10.168;2023-01-25T06:01:53;103217.81;;;4.75
27986;BMP280;15453;53.692;10.168;2023-01-25T06:04:19;103207.38;;;4.71
27986;BMP280;15453;53.692;10.168;2023-01-25T06:06:44;103201.25;;;4.69
27986;BMP280;15453;53.692;10.168;2023-01-25T06:09:11;103205.28;;;4.65
27986;BMP280;15453;53.692;10.168;2023-01-25T06:11:37;103210.00;;;4.63
27986;BMP280;15453;53.692;10.168;2023-01-25T06:14:02;103216.59;;;4.60
27986;BMP280;15453;53.692;10.168;2023-01-25T06:16:27;103212.31;;;4.58
27986;BMP280;15453;53.692;10.168;2023-01-25T06:18:52;103218.75;;;4.57
27986;BMP280;15453;53.692;10.168;2023-01-25T06:21:17;103218.75;;;4.57
27986;BMP280;15453;53.692;10.168;2023-01-25T06:23:43;103212.59;;;4.55
27986;BMP280;15453;53.692;10.168;2023-01-25T06:26:11;103208.19;;;4.54
27986;BMP280;15453;53.692;10.168;2023-01-25T06:28:37;103217.75;;;4.58
27986;BMP280;15453;53.692;10.168;2023-01-25T06:31:11;103217.75;;;4.58
27986;BMP280;15453;53.692;10.168;2023-01-25T06:33:37;103220.16;;;4.61
27986;BMP280;15453;53.692;10.168;2023-01-25T06:36:09;103220.16;;;4.61
27986;BMP280;15453;53.692;10.168;2023-01-25T06:38:35;103209.31;;;4.61
27986;BMP280;15453;53.692;10.168;2023-01-25T06:41:01;103221.41;;;4.66
27986;BMP280;15453;53.692;10.168;2023-01-25T06:43:27;103221.41;;;4.66
27986;BMP280;15453;53.692;10.168;2023-01-25T06:45:56;103208.16;;;4.63
27986;BMP280;15453;53.692;10.168;2023-01-25T06:48:22;103211.84;;;4.62
27986;BMP280;15453;53.692;10.168;2023-01-25T06:50:55;103218.44;;;4.60
27986;BMP280;15453;53.692;10.168;2023-01-25T06:53:26;103218.91;;;4.55
27986;BMP280;15453;53.692;10.168;2023-01-25T06:56:04;103218.91;;;4.55
27986;BMP280;15453;53.692;10.168;2023-01-25T06:58:30;103220.34;;;4.50
27986;BMP280;15453;53.692;10.168;2023-01-25T07:01:16;103220.34;;;4.50
27986;BMP280;15453;53.692;10.168;2023-01-25T07:03:47;103214.81;;;4.42
27986;BMP280;15453;53.692;10.168;2023-01-25T07:06:12;103211.97;;;4.43
27986;BMP280;15453;53.692;10.168;2023-01-25T07:08:37;103203.97;;;4.42
27986;BMP280;15453;53.692;10.168;2023-01-25T07:11:05;103200.38;;;4.41
27986;BMP280;15453;53.692;10.168;2023-01-25T07:13:33;103202.13;;;4.42
27986;BMP280;15453;53.692;10.168;2023-01-25T07:16:00;103202.25;;;4.41
27986;BMP280;15453;53.692;10.168;2023-01-25T07:18:27;103203.38;;;4.48
27986;BMP280;15453;53.692;10.168;2023-01-25T07:20:54;103192.53;;;4.48
27986;BMP280;15453;53.692;10.168;2023-01-25T07:23:20;103196.06;;;4.48
27986;BMP280;15453;53.692;10.168;2023-01-25T07:25:46;103196.06;;;4.48
27986;BMP280;15453;53.692;10.168;2023-01-25T07:28:12;103188.06;;;4.47
27986;BMP280;15453;53.692;10.168;2023-01-25T07:30:39;103187.09;;;4.48
27986;BMP280;15453;53.692;10.168;2023-01-25T07:33:04;103175.78;;;4.52
27986;BMP280;15453;53.692;10.168;2023-01-25T07:35:30;103175.78;;;4.52
27986;BMP280;15453;53.692;10.168;2023-01-25T07:37:56;103184.78;;;4.53
27986;BMP280;15453;53.692;10.168;2023-01-25T07:40:21;103163.91;;;4.53
27986;BMP280;15453;53.692;10.168;2023-01-25T07:42:50;103168.16;;;4.56
27986;BMP280;15453;53.692;10.168;2023-01-25T07:45:15;103162.75;;;4.56
27986;BMP280;15453;53.692;10.168;2023-01-25T07:47:41;103168.88;;;4.58
27986;BMP280;15453;53.692;10.168;2023-01-25T07:50:06;103163.59;;;4.56
27986;BMP280;15453;53.692;10.168;2023-01-25T07:52:32;103164.47;;;4.57
27986;BMP280;15453;53.692;10.168;2023-01-25T07:54:57;103156.47;;;4.55
27986;BMP280;15453;53.692;10.168;2023-01-25T07:57:22;103155.31;;;4.58
27986;BMP280;15453;53.692;10.168;2023-01-25T07:59:48;103155.31;;;4.58
27986;BMP280;15453;53.692;10.168;2023-01-25T08:02:13;103145.47;;;4.57
27986;BMP280;15453;53.692;10.168;2023-01-25T08:04:45;103145.47;;;4.57
27986;BMP280;15453;53.692;10.168;2023-01-25T08:07:11;103146.31;;;4.57
27986;BMP280;15453;53.692;10.168;2023-01-25T08:09:37;103140.88;;;4.57
27986;BMP280;15453;53.692;10.168;2023-01-25T08:12:02;103145.31;;;4.58
27986;BMP280;15453;53.692;10.168;2023-01-25T08:14:28;103146.00;;;4.60
27986;BMP280;15453;53.692;10.168;2023-01-25T08:16:53;103137.88;;;4.60
27986;BMP280;15453;53.692;10.168;2023-01-25T08:19:18;103137.88;;;4.60
27986;BMP280;15453;53.692;10.168;2023-01-25T08:21:45;103136.00;;;4.61
27986;BMP280;15453;53.692;10.168;2023-01-25T08:24:11;103129.72;;;4.60
27986;BMP280;15453;53.692;10.168;2023-01-25T08:26:37;103134.13;;;4.61
27986;BMP280;15453;53.692;10.168;2023-01-25T08:29:03;103134.13;;;4.61
27986;BMP280;15453;53.692;10.168;2023-01-25T08:31:30;103128.41;;;4.64
27986;BMP280;15453;53.692;10.168;2023-01-25T08:33:57;103130.13;;;4.65
27986;BMP280;15453;53.692;10.168;2023-01-25T08:36:23;103130.13;;;4.65
27986;BMP280;15453;53.692;10.168;2023-01-25T08:38:56;103116.69;;;4.64
27986;BMP280;15453;53.692;10.168;2023-01-25T08:41:22;103108.16;;;4.59
27986;BMP280;15453;53.692;10.168;2023-01-25T08:43:50;103108.31;;;4.57
27986;BMP280;15453;53.692;10.168;2023-01-25T08:46:16;103097.78;;;4.54
27986;BMP280;15453;53.692;10.168;2023-01-25T08:48:41;103100.78;;;4.51
27986;BMP280;15453;53.692;10.168;2023-01-25T08:51:07;103101.94;;;4.49
27986;BMP280;15453;53.692;10.168;2023-01-25T08:53:33;103101.94;;;4.49
27986;BMP280;15453;53.692;10.168;2023-01-25T08:56:06;103094.41;;;4.43
27986;BMP280;15453;53.692;10.168;2023-01-25T08:58:32;103088.00;;;4.44
27986;BMP280;15453;53.692;10.168;2023-01-25T09:01:02;103088.00;;;4.44
27986;BMP280;15453;53.692;10.168;2023-01-25T09:03:28;103069.44;;;4.39
27986;BMP280;15453;53.692;10.168;2023-01-25T09:05:53;103069.16;;;4.42
27986;BMP280;15453;53.692;10.168;2023-01-25T09:08:18;103065.56;;;4.42
27986;BMP280;15453;53.692;10.168;2023-01-25T09:10:44;103074.09;;;4.47
27986;BMP280;15453;53.692;10.168;2023-01-25T09:13:09;103081.94;;;4.50
27986;BMP280;15453;53.692;10.168;2023-01-25T09:15:34;103081.94;;;4.50
27986;BMP280;15453;53.692;10.168;2023-01-25T09:17:59;103070.94;;;4.51
27986;BMP280;15453;53.692;10.168;2023-01-25T09:20:25;103070.94;;;4.51
27986;BMP280;15453;53.692;10.168;2023-01-25T09:22:50;103066.81;;;4.47
27986;BMP280;15453;53.692;10.168;2023-01-25T09:25:16;103077.19;;;4.52
27986;BMP280;15453;53.692;10.168;2023-01-25T09:27:41;103077.19;;;4.52
27986;BMP280;15453;53.692;10.168;2023-01-25T09:30:08;103066.81;;;4.47
27986;BMP280;15453;53.692;10.168;2023-01-25T09:32:33;103068.66;;;4.47
27986;BMP280;15453;53.692;10.168;2023-01-25T09:34:58;103060.53;;;4.47
27986;BMP280;15453;53.692;10.168;2023-01-25T09:37:24;103060.53;;;4.47
27986;BMP280;15453;53.692;10.168;2023-01-25T09:39:49;103061.25;;;4.49
27986;BMP280;15453;53.692;10.168;2023-01-25T09:42:45;103061.25;;;4.49
27986;BMP280;15453;53.692;10.168;2023-01-25T09:45:33;103054.41;;;4.45
27986;BMP280;15453;53.692;10.168;2023-01-25T09:48:07;103048.50;;;4.49
27986;BMP280;15453;53.692;10.168;2023-01-25T09:50:35;103041.06;;;4.51
27986;BMP280;15453;53.692;10.168;2023-01-25T09:56:07;103035.13;;;4.48
27986;BMP280;15453;53.692;10.168;2023-01-25T09:58:37;103041.38;;;4.48
27986;BMP280;15453;53.692;10.168;2023-01-25T10:01:15;103041.38;;;4.48
27986;BMP280;15453;53.692;10.168;2023-01-25T10:03:51;103024.56;;;4.45
27986;BMP280;15453;53.692;10.168;2023-01-25T10:06:19;103024.56;;;4.45
27986;BMP280;15453;53.692;10.168;2023-01-25T10:08:52;103030.69;;;4.47
27986;BMP280;15453;53.692;10.168;2023-01-25T10:11:24;103030.69;;;4.47
27986;BMP280;15453;53.692;10.168;2023-01-25T10:13:49;103039.44;;;4.41
27986;BMP280;15453;53.692;10.168;2023-01-25T10:16:24;103039.44;;;4.41
27986;BMP280;15453;53.692;10.168;2023-01-25T10:21:22;103015.63;;;4.35
27986;BMP280;15453;53.692;10.168;2023-01-25T10:26:32;103006.78;;;4.33
27986;BMP280;15453;53.692;10.168;2023-01-25T10:29:19;102998.97;;;4.30
27986;BMP280;15453;53.692;10.168;2023-01-25T10:31:52;102998.97;;;4.30
27986;BMP280;15453;53.692;10.168;2023-01-25T10:34:24;102997.41;;;4.27
27986;BMP280;15453;53.692;10.168;2023-01-25T10:36:53;102996.97;;;4.32
27986;BMP280;15453;53.692;10.168;2023-01-25T10:39:20;102996.97;;;4.32
27986;BMP280;15453;53.692;10.168;2023-01-25T10:42:04;102984.22;;;4.32
27986;BMP280;15453;53.692;10.168;2023-01-25T10:44:35;102982.75;;;4.38
27986;BMP280;15453;53.692;10.168;2023-01-25T10:47:30;102982.75;;;4.38
27986;BMP280;15453;53.692;10.168;2023-01-25T10:49:58;102981.22;;;4.35
27986;BMP280;15453;53.692;10.168;2023-01-25T10:52:25;102979.19;;;4.37
27986;BMP280;15453;53.692;10.168;2023-01-25T10:58:02;102971.59;;;4.41
27986;BMP280;15453;53.692;10.168;2023-01-25T11:00:38;102960.59;;;4.42
27986;BMP280;15453;53.692;10.168;2023-01-25T11:03:04;102960.59;;;4.42
27986;BMP280;15453;53.692;10.168;2023-01-25T11:07:58;102941.28;;;4.45
27986;BMP280;15453;53.692;10.168;2023-01-25T11:10:38;102937.56;;;4.46
27986;BMP280;15453;53.692;10.168;2023-01-25T11:15:43;102917.41;;;4.49
27986;BMP280;15453;53.692;10.168;2023-01-25T11:18:19;102918.94;;;4.51
27986;BMP280;15453;53.692;10.168;2023-01-25T11:20:44;102905.09;;;4.54
27986;BMP280;15453;53.692;10.168;2023-01-25T11:23:24;102905.09;;;4.54
27986;BMP280;15453;53.692;10.168;2023-01-25T11:25:50;102893.66;;;4.51
27986;BMP280;15453;53.692;10.168;2023-01-25T11:28:20;102888.25;;;4.51
27986;BMP280;15453;53.692;10.168;2023-01-25T11:30:48;102886.09;;;4.54
27986;BMP280;15453;53.692;10.168;2023-01-25T11:33:16;102886.09;;;4.54
27986;BMP280;15453;53.692;10.168;2023-01-25T11:36:07;102883.69;;;4.51
27986;BMP280;15453;53.692;10.168;2023-01-25T11:38:36;102879.63;;;4.55
27986;BMP280;15453;53.692;10.168;2023-01-25T11:41:19;102863.34;;;4.55
27986;BMP280;15453;53.692;10.168;2023-01-25T11:46:59;102859.63;;;4.56
27986;BMP280;15453;53.692;10.168;2023-01-25T11:49:46;102851.31;;;4.58
27986;BMP280;15453;53.692;10.168;2023-01-25T11:52:25;102851.31;;;4.58
27986;BMP280;15453;53.692;10.168;2023-01-25T11:55:02;102832.69;;;4.63
27986;BMP280;15453;53.692;10.168;2023-01-25T12:02:57;102824.84;;;4.60
27986;BMP280;15453;53.692;10.168;2023-01-25T12:05:54;102805.44;;;4.72
27986;BMP280;15453;53.692;10.168;2023-01-25T12:08:50;102805.44;;;4.72
27986;BMP280;15453;53.692;10.168;2023-01-25T12:14:49;102795.59;;;4.71
27986;BMP280;15453;53.692;10.168;2023-01-25T12:17:35;102791.16;;;4.70
27986;BMP280;15453;53.692;10.168;2023-01-25T12:23:20;102774.34;;;4.67
27986;BMP280;15453;53.692;10.168;2023-01-25T12:26:03;102774.34;;;4.67
27986;BMP280;15453;53.692;10.168;2023-01-25T12:28:37;102762.97;;;4.63
27986;BMP280;15453;53.692;10.168;2023-01-25T12:31:21;102760.75;;;4.59
27986;BMP280;15453;53.692;10.168;2023-01-25T12:33:58;102753.94;;;4.55
27986;BMP280;15453;53.692;10.168;2023-01-25T12:36:32;102753.94;;;4.55
27986;BMP280;15453;53.692;10.168;2023-01-25T12:41:54;102743.94;;;4.55
27986;BMP280;15453;53.692;10.168;2023-01-25T12:44:24;102736.28;;;4.51
27986;BMP280;15453;53.692;10.168;2023-01-25T12:47:04;102732.38;;;4.53
27986;BMP280;15453;53.692;10.168;2023-01-25T12:52:34;102718.97;;;4.52
27986;BMP280;15453;53.692;10.168;2023-01-25T12:55:10;102706.63;;;4.57
27986;BMP280;15453;53.692;10.168;2023-01-25T12:57:57;102706.63;;;4.57
27986;BMP280;15453;53.692;10.168;2023-01-25T13:13:39;102688.63;;;4.56
27986;BMP280;15453;53.692;10.168;2023-01-25T13:18:48;102675.22;;;4.55
27986;BMP280;15453;53.692;10.168;2023-01-25T13:24:22;102670.13;;;4.52
27986;BMP280;15453;53.692;10.168;2023-01-25T13:26:49;102673.53;;;4.54
27986;BMP280;15453;53.692;10.168;2023-01-25T13:32:11;102675.53;;;4.52
27986;BMP280;15453;53.692;10.168;2023-01-25T13:34:56;102665.19;;;4.47
27986;BMP280;15453;53.692;10.168;2023-01-25T13:37:29;102658.56;;;4.42
27986;BMP280;15453;53.692;10.168;2023-01-25T13:40:00;102658.56;;;4.42
27986;BMP280;15453;53.692;10.168;2023-01-25T13:42:34;102658.88;;;4.39
27986;BMP280;15453;53.692;10.168;2023-01-25T13:45:12;102658.88;;;4.39
27986;BMP280;15453;53.692;10.168;2023-01-25T13:47:38;102651.25;;;4.34
27986;BMP280;15453;53.692;10.168;2023-01-25T13:52:38;102622.78;;;4.38
27986;BMP280;15453;53.692;10.168;2023-01-25T13:55:16;102622.78;;;4.38
27986;BMP280;15453;53.692;10.168;2023-01-25T13:57:41;102620.91;;;4.39
27986;BMP280;15453;53.692;10.168;2023-01-25T14:00:13;102623.28;;;4.42
27986;BMP280;15453;53.692;10.168;2023-01-25T14:02:41;102628.03;;;4.40
27986;BMP280;15453;53.692;10.168;2023-01-25T14:05:17;102626.34;;;4.47
27986;BMP280;15453;53.692;10.168;2023-01-25T14:07:45;102624.50;;;4.47
27986;BMP280;15453;53.692;10.168;2023-01-25T14:10:15;102624.50;;;4.47
27986;BMP280;15453;53.692;10.168;2023-01-25T14:12:43;102626.03;;;4.50
27986;BMP280;15453;53.692;10.168;2023-01-25T14:15:26;102626.03;;;4.50
27986;BMP280;15453;53.692;10.168;2023-01-25T14:18:12;102621.28;;;4.44
27986;BMP280;15453;53.692;10.168;2023-01-25T14:20:39;102627.38;;;4.46
27986;BMP280;15453;53.692;10.168;2023-01-25T14:23:19;102627.38;;;4.46
27986;BMP280;15453;53.692;10.168;2023-01-25T14:25:44;102607.16;;;4.40
27986;BMP280;15453;53.692;10.168;2023-01-25T14:28:11;102593.75;;;4.39
27986;BMP280;15453;53.692;10.168;2023-01-25T14:30:39;102600.06;;;4.39
27986;BMP280;15453;53.692;10.168;2023-01-25T14:33:26;102599.03;;;4.40
27986;BMP280;15453;53.692;10.168;2023-01-25T14:35:53;102597.50;;;4.38
27986;BMP280;15453;53.692;10.168;2023-01-25T14:38:29;102599.19;;;4.39
27986;BMP280;15453;53.692;10.168;2023-01-25T14:40:58;102600.22;;;4.38
27986;BMP280;15453;53.692;10.168;2023-01-25T14:43:25;102589.34;;;4.38
27986;BMP280;15453;53.692;10.168;2023-01-25T14:45:50;102577.31;;;4.40
27986;BMP280;15453;53.692;10.168;2023-01-25T14:48:39;102580.03;;;4.40
27986;BMP280;15453;53.692;10.168;2023-01-25T14:51:11;102575.78;;;4.38
27986;BMP280;15453;53.692;10.168;2023-01-25T14:53:41;102572.75;;;4.41
27986;BMP280;15453;53.692;10.168;2023-01-25T14:56:33;102566.47;;;4.40
27986;BMP280;15453;53.692;10.168;2023-01-25T14:58:59;102577.31;;;4.40
27986;BMP280;15453;53.692;10.168;2023-01-25T15:01:29;102581.41;;;4.44
27986;BMP280;15453;53.692;10.168;2023-01-25T15:03:55;102581.41;;;4.44
27986;BMP280;15453;53.692;10.168;2023-01-25T15:06:21;102584.44;;;4.41
27986;BMP280;15453;53.692;10.168;2023-01-25T15:08:46;102580.91;;;4.41
27986;BMP280;15453;53.692;10.168;2023-01-25T15:11:27;102579.38;;;4.38